Item Display Status Serial CT Sensor

Mooring Depth: 1 m

 

Deployed Sensor

  • Serial Number: 8806
  • NDBC Property Number: 35221
  • Start Date: 11/19/2018 (13:28:49 Z)
  • End Date: Currently Active
Water Temperature [°C]     6 entries per hour
Showing data from 9/2/2019 (13:10:00 Z) to 9/1/2019 (00:00:01 Z)
Previous Next [ Day | 3-Days | 7-Days ]
First Last
Prev [ Day | 3-Days | 7-Days ] Next
First Last

Start Time:     :
End Time:     :     
Time (in GMT) :00 :50 :40 :30 :20 :10
Previous Next [ Day | 3-Days | 7-Days ]
First Last
Prev [ Day | 3-Days | 7-Days ] Next
First Last


123 => good data
MM => data is determined as missing
-- => data not received/configured
Back to Top Back to Top
9/2/2019 14:00 to 13:10 -- -- -- -- -- 22.860
9/2/2019 13:00 to 12:10 22.862 22.858 22.863 22.858 22.856 22.853
9/2/2019 12:00 to 11:10 22.861 22.865 22.858 22.863 22.859 22.861
9/2/2019 11:00 to 10:10 22.865 22.872 22.870 22.866 22.866 22.874
9/2/2019 10:00 to 9:10 22.877 22.873 22.873 22.878 22.879 22.879
9/2/2019 09:00 to 8:10 22.887 22.889 22.890 22.886 22.884 22.888
9/2/2019 08:00 to 7:10 22.886 22.891 22.891 22.885 22.898 22.896
9/2/2019 07:00 to 6:10 22.894 22.900 22.903 22.906 22.900 22.904
9/2/2019 06:00 to 5:10 22.911 22.907 22.911 22.917 22.906 22.915
9/2/2019 05:00 to 4:10 22.920 22.916 22.914 22.913 22.925 22.920
9/2/2019 04:00 to 3:10 22.921 22.921 22.927 22.924 22.928 22.924
9/2/2019 03:00 to 2:10 22.933 22.925 22.931 22.937 22.937 22.941
9/2/2019 02:00 to 1:10 22.938 22.937 22.948 22.952 22.956 22.951
9/2/2019 01:00 to 0:10 22.952 22.972 22.967 22.967 22.977 22.976
9/2/2019 00:00 to 23:10 22.989 22.995 23.001 23.008 23.008 23.010
9/1/2019 23:00 to 22:10 23.019 23.027 23.015 23.019 23.021 23.029
9/1/2019 22:00 to 21:10 23.030 23.031 23.026 23.040 23.028 23.029
9/1/2019 21:00 to 20:10 -- -- 23.030 23.041 23.036 23.044
9/1/2019 20:00 to 19:10 23.031 23.027 23.020 23.007 23.009 23.008
9/1/2019 19:00 to 18:10 22.995 22.992 22.978 22.977 22.967 22.975
9/1/2019 18:00 to 17:10 22.970 22.973 22.964 22.938 22.928 22.934
9/1/2019 17:00 to 16:10 22.916 22.914 22.909 22.908 22.903 22.898
9/1/2019 16:00 to 15:10 22.895 22.901 22.895 22.892 22.895 22.895
9/1/2019 15:00 to 14:10 22.896 22.896 22.886 22.887 22.890 22.883
9/1/2019 14:00 to 13:10 22.882 22.886 22.884 22.885 22.882 22.886
9/1/2019 13:00 to 12:10 22.890 22.884 22.888 22.892 22.878 22.884
9/1/2019 12:00 to 11:10 22.888 22.896 22.885 22.898 22.895 22.891
9/1/2019 11:00 to 10:10 22.900 22.900 22.904 22.902 22.901 22.902
9/1/2019 10:00 to 9:10 22.903 22.893 22.912 22.909 22.909 --
9/1/2019 09:00 to 8:10 22.913 22.919 22.926 22.925 22.925 22.906
9/1/2019 08:00 to 7:10 22.915 22.925 22.925 22.931 22.935 22.935
9/1/2019 07:00 to 6:10 22.933 22.940 22.936 22.935 22.936 22.927
9/1/2019 06:00 to 5:10 22.934 22.937 22.938 22.937 22.943 22.939
9/1/2019 05:00 to 4:10 22.938 22.945 22.945 22.942 22.939 22.946
9/1/2019 04:00 to 3:10 22.934 22.940 22.954 22.954 22.952 22.953
9/1/2019 03:00 to 2:10 22.973 22.961 22.955 22.968 22.960 22.962
9/1/2019 02:00 to 1:10 22.952 22.959 22.966 22.968 22.971 22.980
9/1/2019 01:00 to 0:10 22.985 22.978 22.998 22.987 22.994 22.999

 

 

 

Conductivity [S/m]     6 entries per hour
Showing data from 9/2/2019 (13:10:00 Z) to 9/1/2019 (00:00:01 Z)
Previous Next [ Day | 3-Days | 7-Days ]
First Last
Prev [ Day | 3-Days | 7-Days ] Next
First Last

Start Time:     :
End Time:     :     
Time (in GMT) :00 :50 :40 :30 :20 :10
Previous Next [ Day | 3-Days | 7-Days ]
First Last
Prev [ Day | 3-Days | 7-Days ] Next
First Last


123 => good data
MM => data is determined as missing
-- => data not received/configured
Back to Top Back to Top
9/2/2019 14:00 to 13:10 -- -- -- -- -- 5.13416
9/2/2019 13:00 to 12:10 5.13445 5.13400 5.13460 5.13440 5.13400 5.13360
9/2/2019 12:00 to 11:10 5.13430 5.13455 5.13377 5.13449 5.13406 5.13433
9/2/2019 11:00 to 10:10 5.13473 5.13546 5.13528 5.13481 5.13490 5.13569
9/2/2019 10:00 to 9:10 5.13613 5.13545 5.13544 5.13620 5.13627 5.13650
9/2/2019 09:00 to 8:10 5.13732 5.13740 5.13758 5.13695 5.13701 5.13734
9/2/2019 08:00 to 7:10 5.13712 5.13756 5.13751 5.13716 5.13835 5.13831
9/2/2019 07:00 to 6:10 5.13785 5.13860 5.13897 5.13934 5.13873 5.13915
9/2/2019 06:00 to 5:10 5.13981 5.13958 5.13988 5.14046 5.13944 5.14041
9/2/2019 05:00 to 4:10 5.14099 5.14026 5.14015 5.14015 5.14151 5.14088
9/2/2019 04:00 to 3:10 5.14094 5.14102 5.14153 5.14122 5.14161 5.14133
9/2/2019 03:00 to 2:10 5.14235 5.14148 5.14212 5.14267 5.14264 5.14309
9/2/2019 02:00 to 1:10 5.14282 5.14290 5.14385 5.14431 5.14481 5.14429
9/2/2019 01:00 to 0:10 5.14436 5.14661 5.14607 5.14598 5.14716 5.14723
9/2/2019 00:00 to 23:10 5.14833 5.14906 5.14973 5.15050 5.15039 5.15056
9/1/2019 23:00 to 22:10 5.15164 5.15251 5.15114 5.15165 5.15172 5.15276
9/1/2019 22:00 to 21:10 5.15274 5.15299 5.15229 5.15392 5.15258 5.15256
9/1/2019 21:00 to 20:10 5.15316 5.15313 5.15271 5.15392 5.15335 5.15434
9/1/2019 20:00 to 19:10 5.15281 5.15238 5.15157 5.15031 5.15045 5.15043
9/1/2019 19:00 to 18:10 5.14892 5.14859 5.14709 5.14692 5.14587 5.14689
9/1/2019 18:00 to 17:10 5.14628 5.14653 5.14544 5.14284 5.14171 5.14236
9/1/2019 17:00 to 16:10 5.14047 5.14022 5.13972 5.13966 5.13897 5.13843
9/1/2019 16:00 to 15:10 5.13826 5.13873 5.13815 5.13784 5.13805 5.13821
9/1/2019 15:00 to 14:10 5.13823 5.13821 5.13732 5.13729 5.13767 5.13670
9/1/2019 14:00 to 13:10 5.13660 5.13702 5.13682 5.13696 5.13672 5.13713
9/1/2019 13:00 to 12:10 5.13746 5.13696 5.13739 5.13767 5.13643 5.13688
9/1/2019 12:00 to 11:10 5.13751 5.13830 5.13707 5.13821 5.13823 5.13776
9/1/2019 11:00 to 10:10 5.13839 5.13824 5.13887 5.13889 5.13875 5.13852
9/1/2019 10:00 to 9:10 5.13894 5.13831 5.13975 5.13939 5.13930 5.13978
9/1/2019 09:00 to 8:10 5.14005 5.14050 5.14126 5.14107 5.14111 5.13922
9/1/2019 08:00 to 7:10 5.14000 5.14105 5.14112 5.14177 5.14215 5.14218
9/1/2019 07:00 to 6:10 5.14209 5.14277 5.14252 5.14224 5.14237 5.14150
9/1/2019 06:00 to 5:10 5.14220 5.14254 5.14267 5.14247 5.14308 5.14267
9/1/2019 05:00 to 4:10 5.14255 5.14342 5.14319 5.14297 5.14277 5.14338
9/1/2019 04:00 to 3:10 5.14210 5.14286 5.14406 5.14422 5.14417 5.14378
9/1/2019 03:00 to 2:10 5.14608 5.14499 5.14420 5.14575 5.14490 5.14518
9/1/2019 02:00 to 1:10 5.14416 5.14482 5.14538 5.14563 5.14586 5.14671
9/1/2019 01:00 to 0:10 5.14740 5.14667 5.14869 5.14773 5.14839 5.14896

 

 

 

Salinity [psu]     6 entries per hour
Showing data from 9/2/2019 (13:10:00 Z) to 9/1/2019 (00:00:01 Z)
Previous Next [ Day | 3-Days | 7-Days ]
First Last
Prev [ Day | 3-Days | 7-Days ] Next
First Last

Start Time:     :
End Time:     :     
Time (in GMT) :00 :50 :40 :30 :20 :10
Previous Next [ Day | 3-Days | 7-Days ]
First Last
Prev [ Day | 3-Days | 7-Days ] Next
First Last


123 => good data
MM => data is determined as missing
-- => data not received/configured
Back to Top Back to Top
9/2/2019 14:00 to 13:10 -- -- -- -- -- 35.38
9/2/2019 13:00 to 12:10 35.38 35.38 35.38 35.39 35.38 35.38
9/2/2019 12:00 to 11:10 35.38 35.38 35.38 35.38 35.38 35.38
9/2/2019 11:00 to 10:10 35.38 35.38 35.38 35.38 35.38 35.38
9/2/2019 10:00 to 9:10 35.38 35.38 35.38 35.38 35.38 35.38
9/2/2019 09:00 to 8:10 35.38 35.38 35.38 35.38 35.38 35.38
9/2/2019 08:00 to 7:10 35.38 35.38 35.38 35.38 35.38 35.38
9/2/2019 07:00 to 6:10 35.38 35.38 35.38 35.38 35.38 35.39
9/2/2019 06:00 to 5:10 35.38 35.39 35.39 35.38 35.39 35.39
9/2/2019 05:00 to 4:10 35.39 35.38 35.38 35.39 35.39 35.39
9/2/2019 04:00 to 3:10 35.39 35.39 35.38 35.38 35.38 35.39
9/2/2019 03:00 to 2:10 35.39 35.39 35.39 35.39 35.39 35.39
9/2/2019 02:00 to 1:10 35.39 35.39 35.39 35.39 35.39 35.39
9/2/2019 01:00 to 0:10 35.39 35.39 35.39 35.39 35.39 35.39
9/2/2019 00:00 to 23:10 35.39 35.39 35.39 35.39 35.39 35.39
9/1/2019 23:00 to 22:10 35.39 35.39 35.39 35.39 35.39 35.39
9/1/2019 22:00 to 21:10 35.39 35.39 35.39 35.39 35.39 35.39
9/1/2019 21:00 to 20:10 -- -- 35.39 35.39 35.39 35.39
9/1/2019 20:00 to 19:10 35.39 35.39 35.39 35.39 35.39 35.39
9/1/2019 19:00 to 18:10 35.39 35.39 35.39 35.39 35.39 35.39
9/1/2019 18:00 to 17:10 35.39 35.39 35.39 35.39 35.39 35.39
9/1/2019 17:00 to 16:10 35.39 35.39 35.39 35.39 35.38 35.38
9/1/2019 16:00 to 15:10 35.38 35.38 35.38 35.38 35.38 35.38
9/1/2019 15:00 to 14:10 35.38 35.38 35.39 35.38 35.38 35.38
9/1/2019 14:00 to 13:10 35.38 35.38 35.38 35.38 35.38 35.38
9/1/2019 13:00 to 12:10 35.38 35.38 35.38 35.38 35.39 35.38
9/1/2019 12:00 to 11:10 35.39 35.38 35.38 35.38 35.39 35.38
9/1/2019 11:00 to 10:10 35.38 35.38 35.38 35.38 35.38 35.38
9/1/2019 10:00 to 9:10 35.38 35.39 35.38 35.38 35.38 --
9/1/2019 09:00 to 8:10 35.38 35.38 35.38 35.38 35.38 35.38
9/1/2019 08:00 to 7:10 35.38 35.38 35.38 35.38 35.38 35.38
9/1/2019 07:00 to 6:10 35.38 35.38 35.38 35.38 35.38 35.38
9/1/2019 06:00 to 5:10 35.38 35.38 35.38 35.38 35.38 35.38
9/1/2019 05:00 to 4:10 35.38 35.38 35.38 35.38 35.38 35.38
9/1/2019 04:00 to 3:10 35.38 35.38 35.38 35.38 35.38 35.38
9/1/2019 03:00 to 2:10 35.38 35.38 35.38 35.38 35.38 35.38
9/1/2019 02:00 to 1:10 35.39 35.38 35.38 35.38 35.38 35.38
9/1/2019 01:00 to 0:10 35.38 35.38 35.38 35.38 35.38 35.38